sensor_id;sensor_type;location;lat;lon;timestamp;P1;durP1;ratioP1;P2;durP2;ratioP2
21941;SDS011;11135;54.192;15.670;2023-04-24T00:03:04;18.35;;;12.32;;
21941;SDS011;11135;54.192;15.670;2023-04-24T00:06:12;22.65;;;14.88;;
21941;SDS011;11135;54.192;15.670;2023-04-24T00:09:18;20.48;;;12.40;;
21941;SDS011;11135;54.192;15.670;2023-04-24T00:12:24;23.23;;;13.57;;
21941;SDS011;11135;54.192;15.670;2023-04-24T00:15:29;21.65;;;13.35;;
21941;SDS011;11135;54.192;15.670;2023-04-24T00:18:37;21.10;;;13.98;;
21941;SDS011;11135;54.192;15.670;2023-04-24T00:21:43;20.23;;;13.65;;
21941;SDS011;11135;54.192;15.670;2023-04-24T00:24:48;17.90;;;12.35;;
21941;SDS011;11135;54.192;15.670;2023-04-24T00:27:53;21.00;;;13.25;;
21941;SDS011;11135;54.192;15.670;2023-04-24T00:30:59;20.83;;;13.25;;
21941;SDS011;11135;54.192;15.670;2023-04-24T00:34:08;16.52;;;10.75;;
21941;SDS011;11135;54.192;15.670;2023-04-24T00:37:15;17.48;;;11.63;;
21941;SDS011;11135;54.192;15.670;2023-04-24T00:40:21;19.00;;;11.48;;
21941;SDS011;11135;54.192;15.670;2023-04-24T00:43:26;19.05;;;12.85;;
21941;SDS011;11135;54.192;15.670;2023-04-24T00:46:31;15.85;;;10.57;;
21941;SDS011;11135;54.192;15.670;2023-04-24T00:49:40;16.25;;;10.65;;
21941;SDS011;11135;54.192;15.670;2023-04-24T00:52:46;16.35;;;11.13;;
21941;SDS011;11135;54.192;15.670;2023-04-24T00:55:51;16.77;;;11.05;;
21941;SDS011;11135;54.192;15.670;2023-04-24T00:58:58;15.60;;;11.23;;
21941;SDS011;11135;54.192;15.670;2023-04-24T01:02:05;14.35;;;10.43;;
21941;SDS011;11135;54.192;15.670;2023-04-24T01:05:15;14.57;;;9.93;;
21941;SDS011;11135;54.192;15.670;2023-04-24T01:08:21;16.60;;;11.15;;
21941;SDS011;11135;54.192;15.670;2023-04-24T01:11:28;14.93;;;11.00;;
21941;SDS011;11135;54.192;15.670;2023-04-24T01:14:34;15.50;;;11.57;;
21941;SDS011;11135;54.192;15.670;2023-04-24T01:17:39;13.70;;;10.45;;
21941;SDS011;11135;54.192;15.670;2023-04-24T01:20:47;15.18;;;10.05;;
21941;SDS011;11135;54.192;15.670;2023-04-24T01:23:56;15.07;;;10.95;;
21941;SDS011;11135;54.192;15.670;2023-04-24T01:27:03;12.05;;;8.90;;
21941;SDS011;11135;54.192;15.670;2023-04-24T01:30:08;11.25;;;9.05;;
21941;SDS011;11135;54.192;15.670;2023-04-24T01:33:14;14.93;;;10.10;;
21941;SDS011;11135;54.192;15.670;2023-04-24T01:36:20;14.55;;;9.57;;
21941;SDS011;11135;54.192;15.670;2023-04-24T01:39:32;14.38;;;10.02;;
21941;SDS011;11135;54.192;15.670;2023-04-24T01:42:40;13.68;;;9.13;;
21941;SDS011;11135;54.192;15.670;2023-04-24T01:45:46;13.93;;;9.13;;
21941;SDS011;11135;54.192;15.670;2023-04-24T01:48:51;12.70;;;8.50;;
21941;SDS011;11135;54.192;15.670;2023-04-24T01:51:57;14.25;;;8.88;;
21941;SDS011;11135;54.192;15.670;2023-04-24T01:55:08;13.95;;;9.23;;
21941;SDS011;11135;54.192;15.670;2023-04-24T01:58:15;12.52;;;8.27;;
21941;SDS011;11135;54.192;15.670;2023-04-24T02:01:23;11.32;;;8.20;;
21941;SDS011;11135;54.192;15.670;2023-04-24T02:04:29;12.07;;;7.78;;
21941;SDS011;11135;54.192;15.670;2023-04-24T02:07:35;12.13;;;8.10;;
21941;SDS011;11135;54.192;15.670;2023-04-24T02:10:43;11.90;;;8.70;;
21941;SDS011;11135;54.192;15.670;2023-04-24T02:13:48;10.65;;;7.88;;
21941;SDS011;11135;54.192;15.670;2023-04-24T02:16:55;11.90;;;8.50;;
21941;SDS011;11135;54.192;15.670;2023-04-24T02:20:02;12.45;;;9.25;;
21941;SDS011;11135;54.192;15.670;2023-04-24T02:23:11;15.60;;;9.68;;
21941;SDS011;11135;54.192;15.670;2023-04-24T02:26:19;12.15;;;9.05;;
21941;SDS011;11135;54.192;15.670;2023-04-24T02:29:25;13.20;;;9.88;;
21941;SDS011;11135;54.192;15.670;2023-04-24T02:32:30;14.95;;;10.63;;
21941;SDS011;11135;54.192;15.670;2023-04-24T02:35:39;13.23;;;9.60;;
21941;SDS011;11135;54.192;15.670;2023-04-24T02:38:47;12.90;;;9.07;;
21941;SDS011;11135;54.192;15.670;2023-04-24T02:41:55;13.75;;;10.73;;
21941;SDS011;11135;54.192;15.670;2023-04-24T02:45:03;12.45;;;9.65;;
21941;SDS011;11135;54.192;15.670;2023-04-24T02:48:12;17.35;;;11.68;;
21941;SDS011;11135;54.192;15.670;2023-04-24T02:51:19;16.88;;;12.75;;
21941;SDS011;11135;54.192;15.670;2023-04-24T02:54:25;16.55;;;12.13;;
21941;SDS011;11135;54.192;15.670;2023-04-24T02:57:34;17.30;;;11.90;;
21941;SDS011;11135;54.192;15.670;2023-04-24T03:00:43;18.05;;;11.15;;
21941;SDS011;11135;54.192;15.670;2023-04-24T03:03:48;17.67;;;11.57;;
21941;SDS011;11135;54.192;15.670;2023-04-24T03:06:57;16.67;;;10.50;;
21941;SDS011;11135;54.192;15.670;2023-04-24T03:10:04;16.60;;;10.60;;
21941;SDS011;11135;54.192;15.670;2023-04-24T03:13:15;16.50;;;10.43;;
21941;SDS011;11135;54.192;15.670;2023-04-24T03:16:22;14.10;;;9.18;;
21941;SDS011;11135;54.192;15.670;2023-04-24T03:19:28;16.85;;;10.07;;
21941;SDS011;11135;54.192;15.670;2023-04-24T03:22:33;12.80;;;8.50;;
21941;SDS011;11135;54.192;15.670;2023-04-24T03:25:39;12.05;;;8.43;;
21941;SDS011;11135;54.192;15.670;2023-04-24T03:28:47;11.02;;;7.88;;
21941;SDS011;11135;54.192;15.670;2023-04-24T03:35:02;12.30;;;7.00;;
21941;SDS011;11135;54.192;15.670;2023-04-24T03:38:10;9.27;;;6.85;;
21941;SDS011;11135;54.192;15.670;2023-04-24T03:41:19;7.50;;;5.63;;
21941;SDS011;11135;54.192;15.670;2023-04-24T03:44:27;8.40;;;6.35;;
21941;SDS011;11135;54.192;15.670;2023-04-24T03:47:33;8.07;;;5.35;;
21941;SDS011;11135;54.192;15.670;2023-04-24T03:50:38;9.70;;;6.20;;
21941;SDS011;11135;54.192;15.670;2023-04-24T03:53:47;8.27;;;6.03;;
21941;SDS011;11135;54.192;15.670;2023-04-24T03:56:52;10.32;;;5.78;;
21941;SDS011;11135;54.192;15.670;2023-04-24T04:00:01;7.82;;;5.47;;
21941;SDS011;11135;54.192;15.670;2023-04-24T04:03:08;7.07;;;5.47;;
21941;SDS011;11135;54.192;15.670;2023-04-24T04:06:26;7.43;;;5.55;;
21941;SDS011;11135;54.192;15.670;2023-04-24T04:09:34;7.63;;;5.50;;
21941;SDS011;11135;54.192;15.670;2023-04-24T04:12:44;7.82;;;5.22;;
21941;SDS011;11135;54.192;15.670;2023-04-24T04:15:52;8.77;;;5.95;;
21941;SDS011;11135;54.192;15.670;2023-04-24T04:18:57;8.30;;;6.22;;
21941;SDS011;11135;54.192;15.670;2023-04-24T04:22:04;8.05;;;6.10;;
21941;SDS011;11135;54.192;15.670;2023-04-24T04:25:14;8.18;;;5.68;;
21941;SDS011;11135;54.192;15.670;2023-04-24T04:28:21;6.78;;;5.50;;
21941;SDS011;11135;54.192;15.670;2023-04-24T04:31:33;6.80;;;5.22;;
21941;SDS011;11135;54.192;15.670;2023-04-24T04:34:40;7.05;;;5.50;;
21941;SDS011;11135;54.192;15.670;2023-04-24T04:37:47;9.68;;;6.60;;
21941;SDS011;11135;54.192;15.670;2023-04-24T04:40:53;8.23;;;6.05;;
21941;SDS011;11135;54.192;15.670;2023-04-24T04:43:58;7.32;;;4.97;;
21941;SDS011;11135;54.192;15.670;2023-04-24T04:47:11;6.35;;;5.00;;
21941;SDS011;11135;54.192;15.670;2023-04-24T04:50:19;7.00;;;5.43;;
21941;SDS011;11135;54.192;15.670;2023-04-24T04:53:28;7.40;;;6.07;;
21941;SDS011;11135;54.192;15.670;2023-04-24T04:56:34;6.70;;;5.32;;
21941;SDS011;11135;54.192;15.670;2023-04-24T04:59:39;8.55;;;6.35;;
21941;SDS011;11135;54.192;15.670;2023-04-24T05:02:47;8.70;;;6.85;;
21941;SDS011;11135;54.192;15.670;2023-04-24T05:05:55;8.55;;;6.40;;
21941;SDS011;11135;54.192;15.670;2023-04-24T05:09:02;8.18;;;6.75;;
21941;SDS011;11135;54.192;15.670;2023-04-24T05:12:09;11.82;;;7.25;;
21941;SDS011;11135;54.192;15.670;2023-04-24T05:15:14;12.20;;;8.32;;
21941;SDS011;11135;54.192;15.670;2023-04-24T05:18:24;11.57;;;8.27;;
21941;SDS011;11135;54.192;15.670;2023-04-24T05:21:29;10.18;;;7.65;;
21941;SDS011;11135;54.192;15.670;2023-04-24T05:24:36;11.90;;;7.85;;
21941;SDS011;11135;54.192;15.670;2023-04-24T05:32:10;12.40;;;8.10;;
21941;SDS011;11135;54.192;15.670;2023-04-24T05:36:15;13.15;;;9.15;;
21941;SDS011;11135;54.192;15.670;2023-04-24T05:39:32;16.95;;;9.65;;
21941;SDS011;11135;54.192;15.670;2023-04-24T05:43:04;18.27;;;10.68;;
21941;SDS011;11135;54.192;15.670;2023-04-24T05:47:00;15.32;;;10.60;;
21941;SDS011;11135;54.192;15.670;2023-04-24T05:50:23;16.55;;;11.38;;
21941;SDS011;11135;54.192;15.670;2023-04-24T05:53:33;15.32;;;9.85;;
21941;SDS011;11135;54.192;15.670;2023-04-24T05:56:41;14.50;;;10.48;;
21941;SDS011;11135;54.192;15.670;2023-04-24T05:59:49;12.85;;;9.07;;
21941;SDS011;11135;54.192;15.670;2023-04-24T06:02:59;12.88;;;8.90;;
21941;SDS011;11135;54.192;15.670;2023-04-24T06:06:10;14.73;;;9.50;;
21941;SDS011;11135;54.192;15.670;2023-04-24T06:09:47;15.02;;;10.00;;
21941;SDS011;11135;54.192;15.670;2023-04-24T06:13:30;18.80;;;12.32;;
21941;SDS011;11135;54.192;15.670;2023-04-24T06:16:52;17.10;;;11.25;;
21941;SDS011;11135;54.192;15.670;2023-04-24T06:20:31;17.35;;;11.00;;
21941;SDS011;11135;54.192;15.670;2023-04-24T06:24:19;16.13;;;10.60;;
21941;SDS011;11135;54.192;15.670;2023-04-24T06:27:36;18.15;;;12.23;;
21941;SDS011;11135;54.192;15.670;2023-04-24T06:31:06;18.25;;;11.95;;
21941;SDS011;11135;54.192;15.670;2023-04-24T06:34:11;20.90;;;13.73;;
21941;SDS011;11135;54.192;15.670;2023-04-24T06:37:18;20.75;;;13.23;;
21941;SDS011;11135;54.192;15.670;2023-04-24T06:40:24;20.33;;;14.27;;
21941;SDS011;11135;54.192;15.670;2023-04-24T06:43:35;24.23;;;15.30;;
21941;SDS011;11135;54.192;15.670;2023-04-24T06:46:40;23.40;;;15.40;;
21941;SDS011;11135;54.192;15.670;2023-04-24T06:49:46;23.90;;;15.63;;
21941;SDS011;11135;54.192;15.670;2023-04-24T06:52:52;23.95;;;15.35;;
21941;SDS011;11135;54.192;15.670;2023-04-24T06:55:58;20.17;;;13.60;;
21941;SDS011;11135;54.192;15.670;2023-04-24T06:59:06;23.02;;;15.95;;
21941;SDS011;11135;54.192;15.670;2023-04-24T07:02:13;23.40;;;15.52;;
21941;SDS011;11135;54.192;15.670;2023-04-24T07:05:21;23.65;;;15.13;;
21941;SDS011;11135;54.192;15.670;2023-04-24T07:08:26;21.15;;;15.10;;
21941;SDS011;11135;54.192;15.670;2023-04-24T07:11:33;20.33;;;13.77;;
21941;SDS011;11135;54.192;15.670;2023-04-24T07:14:42;20.70;;;13.73;;
21941;SDS011;11135;54.192;15.670;2023-04-24T07:17:48;18.65;;;12.65;;
21941;SDS011;11135;54.192;15.670;2023-04-24T07:20:53;21.05;;;14.98;;
21941;SDS011;11135;54.192;15.670;2023-04-24T07:23:58;21.98;;;14.48;;
21941;SDS011;11135;54.192;15.670;2023-04-24T07:27:04;19.50;;;14.05;;
21941;SDS011;11135;54.192;15.670;2023-04-24T07:30:12;21.75;;;14.77;;
21941;SDS011;11135;54.192;15.670;2023-04-24T07:33:17;21.85;;;16.23;;
21941;SDS011;11135;54.192;15.670;2023-04-24T07:36:26;20.38;;;13.73;;
21941;SDS011;11135;54.192;15.670;2023-04-24T07:39:32;18.55;;;13.27;;
21941;SDS011;11135;54.192;15.670;2023-04-24T07:42:37;18.98;;;13.68;;
21941;SDS011;11135;54.192;15.670;2023-04-24T07:45:49;16.65;;;12.38;;
21941;SDS011;11135;54.192;15.670;2023-04-24T07:48:54;18.75;;;13.55;;
21941;SDS011;11135;54.192;15.670;2023-04-24T07:52:14;14.25;;;11.88;;
21941;SDS011;11135;54.192;15.670;2023-04-24T07:55:19;14.13;;;11.93;;
21941;SDS011;11135;54.192;15.670;2023-04-24T07:58:30;14.90;;;11.45;;
21941;SDS011;11135;54.192;15.670;2023-04-24T08:01:38;13.85;;;10.63;;
21941;SDS011;11135;54.192;15.670;2023-04-24T08:04:43;12.32;;;11.02;;
21941;SDS011;11135;54.192;15.670;2023-04-24T08:07:50;13.60;;;11.20;;
21941;SDS011;11135;54.192;15.670;2023-04-24T08:10:59;13.65;;;10.73;;
21941;SDS011;11135;54.192;15.670;2023-04-24T08:14:06;12.50;;;10.60;;
21941;SDS011;11135;54.192;15.670;2023-04-24T08:17:15;11.65;;;10.45;;
21941;SDS011;11135;54.192;15.670;2023-04-24T08:20:24;11.63;;;9.93;;
21941;SDS011;11135;54.192;15.670;2023-04-24T08:23:29;10.65;;;8.82;;
21941;SDS011;11135;54.192;15.670;2023-04-24T08:29:39;10.27;;;9.25;;
21941;SDS011;11135;54.192;15.670;2023-04-24T08:32:47;11.13;;;9.90;;
21941;SDS011;11135;54.192;15.670;2023-04-24T08:36:07;10.07;;;9.07;;
21941;SDS011;11135;54.192;15.670;2023-04-24T08:39:12;10.18;;;9.13;;
21941;SDS011;11135;54.192;15.670;2023-04-24T08:42:19;11.32;;;10.00;;
21941;SDS011;11135;54.192;15.670;2023-04-24T08:45:27;10.57;;;9.45;;
21941;SDS011;11135;54.192;15.670;2023-04-24T08:48:35;11.73;;;10.00;;
21941;SDS011;11135;54.192;15.670;2023-04-24T08:51:43;10.27;;;9.02;;
21941;SDS011;11135;54.192;15.670;2023-04-24T08:54:49;10.88;;;9.32;;
21941;SDS011;11135;54.192;15.670;2023-04-24T08:57:55;10.68;;;9.57;;
21941;SDS011;11135;54.192;15.670;2023-04-24T09:01:00;11.55;;;8.52;;
21941;SDS011;11135;54.192;15.670;2023-04-24T09:04:10;11.43;;;9.73;;
21941;SDS011;11135;54.192;15.670;2023-04-24T09:07:17;10.55;;;8.52;;
21941;SDS011;11135;54.192;15.670;2023-04-24T09:10:24;9.57;;;8.07;;
21941;SDS011;11135;54.192;15.670;2023-04-24T09:13:32;8.57;;;7.70;;
21941;SDS011;11135;54.192;15.670;2023-04-24T09:16:38;9.95;;;8.77;;
21941;SDS011;11135;54.192;15.670;2023-04-24T09:19:48;8.90;;;7.95;;
21941;SDS011;11135;54.192;15.670;2023-04-24T09:22:53;8.40;;;7.47;;
21941;SDS011;11135;54.192;15.670;2023-04-24T09:25:59;9.25;;;7.40;;
21941;SDS011;11135;54.192;15.670;2023-04-24T09:29:06;7.18;;;6.47;;
21941;SDS011;11135;54.192;15.670;2023-04-24T09:32:19;8.55;;;6.97;;
21941;SDS011;11135;54.192;15.670;2023-04-24T09:35:29;8.90;;;6.97;;
21941;SDS011;11135;54.192;15.670;2023-04-24T09:38:38;9.05;;;6.53;;
21941;SDS011;11135;54.192;15.670;2023-04-24T09:41:44;7.22;;;6.50;;
21941;SDS011;11135;54.192;15.670;2023-04-24T09:44:51;10.43;;;7.18;;
21941;SDS011;11135;54.192;15.670;2023-04-24T09:48:05;7.78;;;6.45;;
21941;SDS011;11135;54.192;15.670;2023-04-24T09:51:17;9.90;;;6.82;;
21941;SDS011;11135;54.192;15.670;2023-04-24T09:54:39;6.75;;;5.75;;
21941;SDS011;11135;54.192;15.670;2023-04-24T09:57:48;8.07;;;5.70;;
21941;SDS011;11135;54.192;15.670;2023-04-24T10:00:54;7.25;;;4.50;;
21941;SDS011;11135;54.192;15.670;2023-04-24T10:04:00;6.70;;;5.63;;
21941;SDS011;11135;54.192;15.670;2023-04-24T10:07:08;6.35;;;5.75;;
21941;SDS011;11135;54.192;15.670;2023-04-24T10:10:15;7.85;;;6.20;;
21941;SDS011;11135;54.192;15.670;2023-04-24T10:13:21;8.65;;;6.93;;
21941;SDS011;11135;54.192;15.670;2023-04-24T10:16:30;7.88;;;7.03;;
21941;SDS011;11135;54.192;15.670;2023-04-24T10:19:36;10.90;;;6.43;;
21941;SDS011;11135;54.192;15.670;2023-04-24T10:22:47;7.88;;;6.63;;
21941;SDS011;11135;54.192;15.670;2023-04-24T10:25:57;8.20;;;6.60;;
21941;SDS011;11135;54.192;15.670;2023-04-24T10:29:07;8.10;;;6.88;;
21941;SDS011;11135;54.192;15.670;2023-04-24T10:32:14;7.80;;;7.03;;
21941;SDS011;11135;54.192;15.670;2023-04-24T10:35:20;9.43;;;6.93;;
21941;SDS011;11135;54.192;15.670;2023-04-24T10:38:33;8.80;;;7.90;;
21941;SDS011;11135;54.192;15.670;2023-04-24T10:41:39;8.93;;;7.50;;
21941;SDS011;11135;54.192;15.670;2023-04-24T10:44:48;9.50;;;7.80;;
21941;SDS011;11135;54.192;15.670;2023-04-24T10:47:58;8.25;;;7.18;;
21941;SDS011;11135;54.192;15.670;2023-04-24T10:54:27;8.43;;;7.45;;
21941;SDS011;11135;54.192;15.670;2023-04-24T10:57:35;10.57;;;7.70;;
21941;SDS011;11135;54.192;15.670;2023-04-24T11:00:41;7.47;;;6.60;;
21941;SDS011;11135;54.192;15.670;2023-04-24T11:03:50;8.63;;;6.38;;
21941;SDS011;11135;54.192;15.670;2023-04-24T11:06:56;9.25;;;7.28;;
21941;SDS011;11135;54.192;15.670;2023-04-24T11:10:04;7.30;;;6.60;;
21941;SDS011;11135;54.192;15.670;2023-04-24T11:13:13;10.90;;;9.80;;
21941;SDS011;11135;54.192;15.670;2023-04-24T11:16:25;11.85;;;10.65;;
21941;SDS011;11135;54.192;15.670;2023-04-24T11:19:31;13.15;;;11.15;;
21941;SDS011;11135;54.192;15.670;2023-04-24T11:22:39;13.18;;;10.82;;
21941;SDS011;11135;54.192;15.670;2023-04-24T11:25:52;13.32;;;11.20;;
21941;SDS011;11135;54.192;15.670;2023-04-24T11:29:12;14.02;;;11.90;;
21941;SDS011;11135;54.192;15.670;2023-04-24T11:32:24;13.40;;;11.55;;
21941;SDS011;11135;54.192;15.670;2023-04-24T11:35:29;15.27;;;11.93;;
21941;SDS011;11135;54.192;15.670;2023-04-24T11:38:40;14.07;;;11.88;;
21941;SDS011;11135;54.192;15.670;2023-04-24T11:41:47;13.05;;;11.50;;
21941;SDS011;11135;54.192;15.670;2023-04-24T11:44:54;13.90;;;12.35;;
21941;SDS011;11135;54.192;15.670;2023-04-24T11:48:00;13.05;;;10.20;;
21941;SDS011;11135;54.192;15.670;2023-04-24T11:51:06;13.30;;;10.82;;
21941;SDS011;11135;54.192;15.670;2023-04-24T11:54:11;12.10;;;10.07;;
21941;SDS011;11135;54.192;15.670;2023-04-24T11:57:22;11.80;;;9.43;;
21941;SDS011;11135;54.192;15.670;2023-04-24T12:00:31;12.13;;;9.93;;
21941;SDS011;11135;54.192;15.670;2023-04-24T12:03:38;11.05;;;9.57;;
21941;SDS011;11135;54.192;15.670;2023-04-24T12:07:00;10.82;;;8.85;;
21941;SDS011;11135;54.192;15.670;2023-04-24T12:10:06;10.50;;;8.57;;
21941;SDS011;11135;54.192;15.670;2023-04-24T12:13:16;10.32;;;8.35;;
21941;SDS011;11135;54.192;15.670;2023-04-24T12:16:21;10.40;;;9.20;;
21941;SDS011;11135;54.192;15.670;2023-04-24T12:19:29;10.68;;;8.85;;
21941;SDS011;11135;54.192;15.670;2023-04-24T12:22:48;10.95;;;8.80;;
21941;SDS011;11135;54.192;15.670;2023-04-24T12:25:53;9.68;;;7.53;;
21941;SDS011;11135;54.192;15.670;2023-04-24T12:29:02;10.13;;;8.32;;
21941;SDS011;11135;54.192;15.670;2023-04-24T12:32:15;9.77;;;8.70;;
21941;SDS011;11135;54.192;15.670;2023-04-24T12:35:21;9.50;;;8.50;;
21941;SDS011;11135;54.192;15.670;2023-04-24T12:38:29;10.30;;;7.85;;
21941;SDS011;11135;54.192;15.670;2023-04-24T12:45:12;11.02;;;9.00;;
21941;SDS011;11135;54.192;15.670;2023-04-24T12:48:18;11.55;;;8.38;;
21941;SDS011;11135;54.192;15.670;2023-04-24T12:51:24;9.48;;;8.23;;
21941;SDS011;11135;54.192;15.670;2023-04-24T12:54:32;10.75;;;8.40;;
21941;SDS011;11135;54.192;15.670;2023-04-24T12:57:42;9.18;;;8.05;;
21941;SDS011;11135;54.192;15.670;2023-04-24T13:00:51;10.65;;;8.23;;
21941;SDS011;11135;54.192;15.670;2023-04-24T13:03:56;9.95;;;7.90;;
21941;SDS011;11135;54.192;15.670;2023-04-24T13:07:02;7.70;;;6.72;;
21941;SDS011;11135;54.192;15.670;2023-04-24T13:10:11;6.90;;;6.15;;
21941;SDS011;11135;54.192;15.670;2023-04-24T13:13:17;7.60;;;6.18;;
21941;SDS011;11135;54.192;15.670;2023-04-24T13:16:27;7.75;;;5.35;;
21941;SDS011;11135;54.192;15.670;2023-04-24T13:19:35;6.95;;;6.25;;
21941;SDS011;11135;54.192;15.670;2023-04-24T13:22:40;7.38;;;6.20;;
21941;SDS011;11135;54.192;15.670;2023-04-24T13:25:46;7.55;;;6.10;;
21941;SDS011;11135;54.192;15.670;2023-04-24T13:28:51;9.65;;;7.55;;
21941;SDS011;11135;54.192;15.670;2023-04-24T13:31:59;8.77;;;7.75;;
21941;SDS011;11135;54.192;15.670;2023-04-24T13:35:04;9.38;;;7.90;;
21941;SDS011;11135;54.192;15.670;2023-04-24T13:38:10;9.95;;;8.95;;
21941;SDS011;11135;54.192;15.670;2023-04-24T13:41:15;9.60;;;8.38;;
21941;SDS011;11135;54.192;15.670;2023-04-24T13:44:21;10.60;;;8.80;;
21941;SDS011;11135;54.192;15.670;2023-04-24T13:47:31;11.70;;;10.48;;
21941;SDS011;11135;54.192;15.670;2023-04-24T13:50:37;10.13;;;9.02;;
21941;SDS011;11135;54.192;15.670;2023-04-24T13:53:42;12.13;;;10.57;;
21941;SDS011;11135;54.192;15.670;2023-04-24T13:56:48;11.93;;;10.45;;
21941;SDS011;11135;54.192;15.670;2023-04-24T13:59:54;12.73;;;10.35;;
21941;SDS011;11135;54.192;15.670;2023-04-24T14:03:07;13.00;;;10.55;;
21941;SDS011;11135;54.192;15.670;2023-04-24T14:06:13;12.70;;;10.57;;
21941;SDS011;11135;54.192;15.670;2023-04-24T14:09:18;13.07;;;10.60;;
21941;SDS011;11135;54.192;15.670;2023-04-24T14:12:23;12.25;;;10.35;;
21941;SDS011;11135;54.192;15.670;2023-04-24T14:15:35;12.40;;;10.40;;
21941;SDS011;11135;54.192;15.670;2023-04-24T14:18:45;16.92;;;10.93;;
21941;SDS011;11135;54.192;15.670;2023-04-24T14:21:50;12.73;;;10.57;;
21941;SDS011;11135;54.192;15.670;2023-04-24T14:24:57;12.73;;;9.77;;
21941;SDS011;11135;54.192;15.670;2023-04-24T14:28:05;11.75;;;10.18;;
21941;SDS011;11135;54.192;15.670;2023-04-24T14:31:10;10.63;;;9.20;;
21941;SDS011;11135;54.192;15.670;2023-04-24T14:34:19;13.35;;;10.02;;
21941;SDS011;11135;54.192;15.670;2023-04-24T14:37:28;11.83;;;10.50;;
21941;SDS011;11135;54.192;15.670;2023-04-24T14:40:33;10.70;;;9.60;;
21941;SDS011;11135;54.192;15.670;2023-04-24T14:44:00;12.00;;;9.77;;
21941;SDS011;11135;54.192;15.670;2023-04-24T14:47:08;14.32;;;10.45;;
21941;SDS011;11135;54.192;15.670;2023-04-24T14:50:15;11.25;;;9.65;;
21941;SDS011;11135;54.192;15.670;2023-04-24T14:53:25;10.70;;;9.60;;
21941;SDS011;11135;54.192;15.670;2023-04-24T14:56:30;11.73;;;9.75;;
21941;SDS011;11135;54.192;15.670;2023-04-24T14:59:37;11.30;;;8.35;;
21941;SDS011;11135;54.192;15.670;2023-04-24T15:02:42;12.35;;;9.45;;
21941;SDS011;11135;54.192;15.670;2023-04-24T15:06:07;11.45;;;9.00;;
21941;SDS011;11135;54.192;15.670;2023-04-24T15:09:13;12.75;;;11.45;;
21941;SDS011;11135;54.192;15.670;2023-04-24T15:12:19;12.07;;;10.30;;
21941;SDS011;11135;54.192;15.670;2023-04-24T15:15:24;10.80;;;9.60;;
21941;SDS011;11135;54.192;15.670;2023-04-24T15:18:30;12.38;;;8.55;;
21941;SDS011;11135;54.192;15.670;2023-04-24T15:21:39;11.73;;;8.57;;
21941;SDS011;11135;54.192;15.670;2023-04-24T15:24:48;10.02;;;9.02;;
21941;SDS011;11135;54.192;15.670;2023-04-24T15:27:53;11.02;;;8.52;;
21941;SDS011;11135;54.192;15.670;2023-04-24T15:31:01;9.55;;;8.00;;
21941;SDS011;11135;54.192;15.670;2023-04-24T15:34:06;11.65;;;9.27;;
21941;SDS011;11135;54.192;15.670;2023-04-24T15:37:14;19.90;;;15.75;;
21941;SDS011;11135;54.192;15.670;2023-04-24T15:40:21;21.10;;;15.68;;
21941;SDS011;11135;54.192;15.670;2023-04-24T15:43:31;9.95;;;8.13;;
21941;SDS011;11135;54.192;15.670;2023-04-24T15:46:36;10.82;;;9.63;;
21941;SDS011;11135;54.192;15.670;2023-04-24T15:49:46;12.27;;;9.65;;
21941;SDS011;11135;54.192;15.670;2023-04-24T15:52:54;9.85;;;8.68;;
21941;SDS011;11135;54.192;15.670;2023-04-24T15:56:02;10.75;;;8.23;;
21941;SDS011;11135;54.192;15.670;2023-04-24T15:59:09;10.45;;;8.43;;
21941;SDS011;11135;54.192;15.670;2023-04-24T16:02:14;9.48;;;8.15;;
21941;SDS011;11135;54.192;15.670;2023-04-24T16:05:21;14.55;;;10.35;;
21941;SDS011;11135;54.192;15.670;2023-04-24T16:08:29;13.73;;;10.23;;
21941;SDS011;11135;54.192;15.670;2023-04-24T16:11:35;14.40;;;11.25;;
21941;SDS011;11135;54.192;15.670;2023-04-24T16:14:41;10.32;;;8.48;;
21941;SDS011;11135;54.192;15.670;2023-04-24T16:17:46;12.48;;;9.40;;
21941;SDS011;11135;54.192;15.670;2023-04-24T16:20:52;11.20;;;8.90;;
21941;SDS011;11135;54.192;15.670;2023-04-24T16:24:00;16.58;;;12.65;;
21941;SDS011;11135;54.192;15.670;2023-04-24T16:27:05;16.23;;;12.30;;
21941;SDS011;11135;54.192;15.670;2023-04-24T16:30:11;15.93;;;13.07;;
21941;SDS011;11135;54.192;15.670;2023-04-24T16:33:19;18.42;;;14.05;;
21941;SDS011;11135;54.192;15.670;2023-04-24T16:36:27;18.52;;;14.07;;
21941;SDS011;11135;54.192;15.670;2023-04-24T16:39:35;18.30;;;13.55;;
21941;SDS011;11135;54.192;15.670;2023-04-24T16:42:44;25.00;;;16.98;;
21941;SDS011;11135;54.192;15.670;2023-04-24T16:45:52;19.50;;;15.63;;
21941;SDS011;11135;54.192;15.670;2023-04-24T16:48:59;20.23;;;15.88;;
21941;SDS011;11135;54.192;15.670;2023-04-24T16:52:07;20.65;;;14.82;;
21941;SDS011;11135;54.192;15.670;2023-04-24T16:55:15;20.02;;;15.10;;
21941;SDS011;11135;54.192;15.670;2023-04-24T16:58:24;20.45;;;14.88;;
21941;SDS011;11135;54.192;15.670;2023-04-24T17:01:31;15.60;;;12.43;;
21941;SDS011;11135;54.192;15.670;2023-04-24T17:04:39;17.27;;;12.68;;
21941;SDS011;11135;54.192;15.670;2023-04-24T17:07:46;17.60;;;13.13;;
21941;SDS011;11135;54.192;15.670;2023-04-24T17:10:55;19.33;;;14.05;;
21941;SDS011;11135;54.192;15.670;2023-04-24T17:14:00;18.60;;;11.70;;
21941;SDS011;11135;54.192;15.670;2023-04-24T17:17:07;17.90;;;12.93;;
21941;SDS011;11135;54.192;15.670;2023-04-24T17:20:12;21.38;;;13.70;;
21941;SDS011;11135;54.192;15.670;2023-04-24T17:23:24;18.23;;;13.02;;
21941;SDS011;11135;54.192;15.670;2023-04-24T17:26:32;14.25;;;11.60;;
21941;SDS011;11135;54.192;15.670;2023-04-24T17:29:38;13.38;;;10.25;;
21941;SDS011;11135;54.192;15.670;2023-04-24T17:32:44;14.00;;;10.70;;
21941;SDS011;11135;54.192;15.670;2023-04-24T17:35:52;14.75;;;9.93;;
21941;SDS011;11135;54.192;15.670;2023-04-24T17:38:59;13.13;;;9.38;;
21941;SDS011;11135;54.192;15.670;2023-04-24T17:42:10;11.10;;;7.45;;
21941;SDS011;11135;54.192;15.670;2023-04-24T17:45:15;12.10;;;8.43;;
21941;SDS011;11135;54.192;15.670;2023-04-24T17:48:20;11.43;;;7.53;;
21941;SDS011;11135;54.192;15.670;2023-04-24T17:51:25;9.85;;;8.65;;
21941;SDS011;11135;54.192;15.670;2023-04-24T17:54:31;11.35;;;9.00;;
21941;SDS011;11135;54.192;15.670;2023-04-24T17:57:38;11.52;;;8.35;;
21941;SDS011;11135;54.192;15.670;2023-04-24T18:00:48;10.55;;;7.90;;
21941;SDS011;11135;54.192;15.670;2023-04-24T18:03:53;9.45;;;8.00;;
21941;SDS011;11135;54.192;15.670;2023-04-24T18:06:59;11.32;;;8.15;;
21941;SDS011;11135;54.192;15.670;2023-04-24T18:10:05;11.23;;;8.68;;
21941;SDS011;11135;54.192;15.670;2023-04-24T18:13:13;10.65;;;9.40;;
21941;SDS011;11135;54.192;15.670;2023-04-24T18:16:21;11.25;;;8.48;;
21941;SDS011;11135;54.192;15.670;2023-04-24T18:19:27;10.35;;;8.40;;
21941;SDS011;11135;54.192;15.670;2023-04-24T18:22:32;11.88;;;7.68;;
21941;SDS011;11135;54.192;15.670;2023-04-24T18:25:44;10.35;;;8.35;;
21941;SDS011;11135;54.192;15.670;2023-04-24T18:28:53;9.23;;;6.82;;
21941;SDS011;11135;54.192;15.670;2023-04-24T18:32:01;9.13;;;7.65;;
21941;SDS011;11135;54.192;15.670;2023-04-24T18:35:08;9.02;;;7.32;;
21941;SDS011;11135;54.192;15.670;2023-04-24T18:38:14;6.85;;;5.63;;